createdAt,value
2018-08-22T00:00:43.870Z,15.57
2018-08-22T00:01:53.572Z,15.62
2018-08-22T00:03:03.280Z,15.6
2018-08-22T00:04:12.979Z,15.57
2018-08-22T00:05:22.436Z,15.55
2018-08-22T00:06:32.386Z,15.62
2018-08-22T00:07:42.098Z,15.57
2018-08-22T00:08:52.193Z,15.6
2018-08-22T00:10:02.320Z,15.57
2018-08-22T00:11:12.279Z,15.5
2018-08-22T00:12:22.225Z,15.55
2018-08-22T00:13:31.929Z,15.54
2018-08-22T00:14:41.879Z,15.44
2018-08-22T00:15:51.330Z,15.45
2018-08-22T00:17:01.288Z,15.45
2018-08-22T00:18:11.248Z,15.43
2018-08-22T00:19:21.189Z,15.36
2018-08-22T00:20:30.882Z,15.33
2018-08-22T00:21:40.577Z,15.35
2018-08-22T00:22:50.547Z,15.33
2018-08-22T00:24:00.500Z,15.3
2018-08-22T00:25:10.188Z,15.32
2018-08-22T00:26:20.212Z,15.27
2018-08-22T00:27:29.927Z,15.29
2018-08-22T00:28:39.881Z,15.27
2018-08-22T00:29:49.842Z,15.22
2018-08-22T00:30:59.797Z,15.18
2018-08-22T00:32:09.754Z,15.17
2018-08-22T00:33:19.701Z,15.15
2018-08-22T00:34:29.666Z,15.22
2018-08-22T00:35:39.368Z,15.25
2018-08-22T00:36:49.330Z,15.15
2018-08-22T00:37:59.272Z,15.11
2018-08-22T00:39:09.239Z,15.17
2018-08-22T00:40:19.196Z,15.08
2018-08-22T00:41:29.202Z,15
2018-08-22T00:42:39.153Z,15.05
2018-08-22T00:43:49.123Z,15.05
2018-08-22T00:44:58.832Z,15.02
2018-08-22T00:46:08.534Z,14.99
2018-08-22T00:47:18.228Z,14.99
2018-08-22T00:48:28.233Z,14.92
2018-08-22T00:49:38.184Z,14.97
2018-08-22T00:50:48.146Z,14.87
2018-08-22T00:51:57.856Z,14.89
2018-08-22T00:53:07.813Z,14.86
2018-08-22T00:54:17.511Z,14.93
2018-08-22T00:55:27.462Z,14.86
2018-08-22T00:56:36.915Z,14.9
2018-08-22T00:57:46.957Z,14.87
2018-08-22T00:58:57.103Z,14.89
2018-08-22T01:00:07.069Z,14.77
2018-08-22T01:01:17.031Z,14.85
2018-08-22T01:02:26.722Z,14.85
2018-08-22T01:03:36.422Z,14.78
2018-08-22T01:04:46.106Z,14.82
2018-08-22T01:05:56.063Z,14.77
2018-08-22T01:07:05.510Z,14.63
2018-08-22T01:08:15.470Z,14.7
2018-08-22T01:09:25.167Z,14.62
2018-08-22T01:10:35.124Z,14.61
2018-08-22T01:11:44.830Z,14.66
2018-08-22T01:12:54.812Z,14.63
2018-08-22T01:14:04.753Z,14.58
2018-08-22T01:15:14.703Z,14.52
2018-08-22T01:16:24.657Z,14.56
2018-08-22T01:17:34.350Z,14.59
2018-08-22T01:18:44.323Z,14.53
2018-08-22T01:19:54.337Z,14.52
2018-08-22T01:21:03.779Z,14.51
2018-08-22T01:22:13.482Z,14.55
2018-08-22T01:23:22.911Z,14.51
2018-08-22T01:24:32.615Z,14.56
2018-08-22T01:25:42.565Z,14.56
2018-08-22T01:26:52.261Z,14.61
2018-08-22T01:28:02.213Z,14.53
2018-08-22T01:29:11.905Z,14.44
2018-08-22T01:30:21.867Z,14.43
2018-08-22T01:31:31.821Z,14.51
2018-08-22T01:32:41.507Z,14.43
2018-08-22T01:33:51.201Z,14.43
2018-08-22T01:35:00.903Z,14.43
2018-08-22T01:36:10.858Z,14.37
2018-08-22T01:37:20.548Z,14.33
2018-08-22T01:38:29.995Z,14.34
2018-08-22T01:39:39.941Z,14.31
2018-08-22T01:40:49.901Z,14.33
2018-08-22T01:42:00.666Z,14.23
2018-08-22T01:43:10.356Z,14.28
2018-08-22T01:44:20.305Z,14.2
2018-08-22T01:45:30.000Z,14.33
2018-08-22T01:46:39.966Z,14.23
2018-08-22T01:47:49.941Z,14.25
2018-08-22T01:48:59.640Z,14.28
2018-08-22T01:50:09.096Z,14.25
2018-08-22T01:51:19.043Z,14.23
2018-08-22T01:52:29.000Z,14.19
2018-08-22T01:53:38.697Z,14.19
2018-08-22T01:54:48.655Z,14.15
2018-08-22T01:55:58.619Z,14.13
2018-08-22T01:57:08.571Z,14.13
2018-08-22T01:58:18.548Z,14.08
2018-08-22T01:59:28.519Z,14.05
2018-08-22T02:00:38.214Z,14.04
2018-08-22T02:01:48.163Z,14.07
2018-08-22T02:02:58.118Z,14.07
2018-08-22T02:04:08.075Z,14.03
2018-08-22T02:05:18.036Z,14
2018-08-22T02:06:27.989Z,14.01
2018-08-22T02:07:37.930Z,13.98
2018-08-22T02:08:47.642Z,14.01
2018-08-22T02:09:57.601Z,14.11
2018-08-22T02:11:07.545Z,13.91
2018-08-22T02:12:17.491Z,13.97
2018-08-22T02:13:27.439Z,14.03
2018-08-22T02:14:37.145Z,13.91
2018-08-22T02:15:47.109Z,13.89
2018-08-22T02:16:57.055Z,13.91
2018-08-22T02:18:07.013Z,13.87
2018-08-22T02:19:16.706Z,13.85
2018-08-22T02:20:26.395Z,13.89
2018-08-22T02:21:36.348Z,13.87
2018-08-22T02:22:46.301Z,13.89
2018-08-22T02:23:55.996Z,13.87
2018-08-22T02:25:05.746Z,13.95
2018-08-22T02:26:15.834Z,13.87
2018-08-22T02:27:25.795Z,13.85
2018-08-22T02:28:35.494Z,13.86
2018-08-22T02:29:45.193Z,13.86
2018-08-22T02:30:55.153Z,13.95
2018-08-22T02:32:05.095Z,13.91
2018-08-22T02:33:14.527Z,13.85
2018-08-22T02:34:24.216Z,13.76
2018-08-22T02:35:34.166Z,13.82
2018-08-22T02:36:44.123Z,13.87
2018-08-22T02:37:54.072Z,13.8
2018-08-22T02:39:03.768Z,13.8
2018-08-22T02:40:13.743Z,13.76
2018-08-22T02:41:23.450Z,13.76
2018-08-22T02:42:33.396Z,13.73
2018-08-22T02:43:43.347Z,13.76
2018-08-22T02:44:53.299Z,13.71
2018-08-22T02:46:03.007Z,13.71
2018-08-22T02:47:12.704Z,13.68
2018-08-22T02:48:22.660Z,13.62
2018-08-22T02:49:32.106Z,13.65
2018-08-22T02:50:41.545Z,13.73
2018-08-22T02:51:51.232Z,13.68
2018-08-22T02:53:00.928Z,13.67
2018-08-22T02:54:10.871Z,13.7
2018-08-22T02:55:20.816Z,13.6
2018-08-22T02:56:30.785Z,13.55
2018-08-22T02:57:40.480Z,13.67
2018-08-22T02:58:50.195Z,13.61
2018-08-22T03:00:00.148Z,13.57
2018-08-22T03:01:10.107Z,13.55
2018-08-22T03:02:20.065Z,13.52
2018-08-22T03:03:29.776Z,13.5
2018-08-22T03:04:39.740Z,13.46
2018-08-22T03:05:49.729Z,13.47
2018-08-22T03:06:59.412Z,13.5
2018-08-22T03:08:09.372Z,13.43
2018-08-22T03:09:19.324Z,13.46
2018-08-22T03:10:29.027Z,13.45
2018-08-22T03:11:38.972Z,13.42
2018-08-22T03:12:48.670Z,13.45
2018-08-22T03:13:58.361Z,13.43
2018-08-22T03:15:08.052Z,13.4
2018-08-22T03:16:18.002Z,13.43
2018-08-22T03:17:27.954Z,13.43
2018-08-22T03:18:37.911Z,13.4
2018-08-22T03:19:47.873Z,13.4
2018-08-22T03:20:57.814Z,13.37
2018-08-22T03:22:07.762Z,13.39
2018-08-22T03:23:17.720Z,13.45
2018-08-22T03:24:27.680Z,13.39
2018-08-22T03:25:37.629Z,13.28
2018-08-22T03:26:47.690Z,13.36
2018-08-22T03:27:57.634Z,13.39
2018-08-22T03:29:07.589Z,13.36
2018-08-22T03:30:17.543Z,13.39
2018-08-22T03:31:27.506Z,13.46
2018-08-22T03:32:37.195Z,13.37
2018-08-22T03:33:46.886Z,13.31
2018-08-22T03:34:56.324Z,13.28
2018-08-22T03:36:06.279Z,13.21
2018-08-22T03:37:15.972Z,13.27
2018-08-22T03:38:25.916Z,13.27
2018-08-22T03:39:35.875Z,13.2
2018-08-22T03:40:45.868Z,13.27
2018-08-22T03:41:55.808Z,13.09
2018-08-22T03:43:05.759Z,13.17
2018-08-22T03:44:15.462Z,13.24
2018-08-22T03:45:25.178Z,13.09
2018-08-22T03:46:35.108Z,13.26
2018-08-22T03:47:44.814Z,13.11
2018-08-22T03:48:54.773Z,13.13
2018-08-22T03:50:04.731Z,13.2
2018-08-22T03:51:14.431Z,13.13
2018-08-22T03:52:24.390Z,13.13
2018-08-22T03:53:34.344Z,13.13
2018-08-22T03:54:44.314Z,13.08
2018-08-22T03:55:54.020Z,13.05
2018-08-22T03:57:03.468Z,13.05
2018-08-22T03:58:13.161Z,13.02
2018-08-22T03:59:23.126Z,13.05
2018-08-22T04:00:33.098Z,13.01
2018-08-22T04:01:42.827Z,12.9
2018-08-22T04:02:52.792Z,12.91
2018-08-22T04:04:02.769Z,12.98
2018-08-22T04:05:12.733Z,12.93
2018-08-22T04:06:22.698Z,12.84
2018-08-22T04:07:32.672Z,12.88
2018-08-22T04:08:42.639Z,12.99
2018-08-22T04:09:52.343Z,12.95
2018-08-22T04:11:02.054Z,12.91
2018-08-22T04:12:12.017Z,12.88
2018-08-22T04:13:21.978Z,13.02
2018-08-22T04:14:31.693Z,12.8
2018-08-22T04:15:41.657Z,12.84
2018-08-22T04:16:51.617Z,12.98
2018-08-22T04:18:01.334Z,12.86
2018-08-22T04:19:11.304Z,12.9
2018-08-22T04:20:21.285Z,12.94
2018-08-22T04:21:31.248Z,12.95
2018-08-22T04:22:40.942Z,12.95
2018-08-22T04:23:50.637Z,12.94
2018-08-22T04:25:00.593Z,13.05
2018-08-22T04:26:10.299Z,13.05
2018-08-22T04:27:20.254Z,13.02
2018-08-22T04:28:30.223Z,13.02
2018-08-22T04:29:40.191Z,13.01
2018-08-22T04:30:50.246Z,13.06
2018-08-22T04:32:00.395Z,12.9
2018-08-22T04:33:10.357Z,12.94
2018-08-22T04:34:20.062Z,12.91
2018-08-22T04:35:29.773Z,12.88
2018-08-22T04:36:39.743Z,12.9
2018-08-22T04:37:49.949Z,12.88
2018-08-22T04:38:59.664Z,12.88
2018-08-22T04:40:09.627Z,12.9
2018-08-22T04:41:19.341Z,12.87
2018-08-22T04:42:29.304Z,12.91
2018-08-22T04:43:39.260Z,13.03
2018-08-22T04:44:48.992Z,13.01
2018-08-22T04:45:58.694Z,13.12
2018-08-22T04:47:08.665Z,13.12
2018-08-22T04:48:18.868Z,13.16
2018-08-22T04:49:28.895Z,13.17
2018-08-22T04:50:38.858Z,13.17
2018-08-22T04:51:48.833Z,13.23
2018-08-22T04:52:58.536Z,13.2
2018-08-22T04:54:08.508Z,13.26
2018-08-22T04:55:18.221Z,13.36
2018-08-22T04:56:28.182Z,13.28
2018-08-22T04:57:37.880Z,13.3
2018-08-22T04:58:47.586Z,13.31
2018-08-22T04:59:57.550Z,13.33
2018-08-22T05:01:07.510Z,13.42
2018-08-22T05:02:17.477Z,13.39
2018-08-22T05:03:27.439Z,13.33
2018-08-22T05:04:37.398Z,13.42
2018-08-22T05:05:47.353Z,13.43
2018-08-22T05:06:57.384Z,13.45
2018-08-22T05:08:06.848Z,13.58
2018-08-22T05:09:16.810Z,13.54
2018-08-22T05:10:26.784Z,13.67
2018-08-22T05:11:36.490Z,13.64
2018-08-22T05:12:46.479Z,13.62
2018-08-22T05:13:56.191Z,13.67
2018-08-22T05:15:06.168Z,13.83
2018-08-22T05:16:15.885Z,13.76
2018-08-22T05:17:25.846Z,13.73
2018-08-22T05:18:35.807Z,13.8
2018-08-22T05:19:45.524Z,13.82
2018-08-22T05:20:55.495Z,13.89
2018-08-22T05:22:05.493Z,13.93
2018-08-22T05:23:15.196Z,13.95
2018-08-22T05:24:25.179Z,14
2018-08-22T05:25:34.629Z,13.95
2018-08-22T05:26:44.355Z,14.05
2018-08-22T05:27:54.341Z,14.05
2018-08-22T05:29:04.321Z,14
2018-08-22T05:30:14.591Z,14.12
2018-08-22T05:31:24.494Z,14.16
2018-08-22T05:32:34.460Z,14.2
2018-08-22T05:33:43.907Z,14.26
2018-08-22T05:34:53.861Z,14.2
2018-08-22T05:36:03.824Z,14.31
2018-08-22T05:37:13.273Z,14.33
2018-08-22T05:38:23.247Z,14.36
2018-08-22T05:39:32.961Z,14.44
2018-08-22T05:40:43.131Z,14.52
2018-08-22T05:41:53.365Z,14.61
2018-08-22T05:43:03.332Z,14.63
2018-08-22T05:44:13.306Z,14.62
2018-08-22T05:45:23.018Z,14.74
2018-08-22T05:46:32.992Z,14.77
2018-08-22T05:47:42.972Z,14.78
2018-08-22T05:48:52.934Z,14.87
2018-08-22T05:50:02.901Z,14.9
2018-08-22T05:51:12.619Z,14.86
2018-08-22T05:52:22.598Z,14.96
2018-08-22T05:53:32.308Z,15.08
2018-08-22T05:54:42.024Z,15.11
2018-08-22T05:55:51.999Z,15.15
2018-08-22T05:57:01.709Z,15.14
2018-08-22T05:58:11.699Z,15.23
2018-08-22T05:59:21.405Z,15.3
2018-08-22T06:00:31.127Z,15.33
2018-08-22T06:01:41.085Z,15.36
2018-08-22T06:02:51.085Z,15.43
2018-08-22T06:04:00.540Z,15.41
2018-08-22T06:05:10.249Z,15.45
2018-08-22T06:06:19.693Z,15.55
2018-08-22T06:07:29.413Z,15.57
2018-08-22T06:08:39.127Z,15.65
2018-08-22T06:09:48.848Z,15.72
2018-08-22T06:10:58.824Z,15.78
2018-08-22T06:12:08.542Z,15.85
2018-08-22T06:13:18.747Z,15.9
2018-08-22T06:14:28.710Z,15.9
2018-08-22T06:15:38.814Z,16
2018-08-22T06:16:48.980Z,16.08
2018-08-22T06:17:58.980Z,16.1
2018-08-22T06:19:08.998Z,16.26
2018-08-22T06:20:18.970Z,16.34
2018-08-22T06:21:28.932Z,16.41
2018-08-22T06:22:38.642Z,16.46
2018-08-22T06:23:48.608Z,16.47
2018-08-22T06:24:58.323Z,16.54
2018-08-22T06:26:08.312Z,16.58
2018-08-22T06:27:18.024Z,16.66
2018-08-22T06:28:27.995Z,16.62
2018-08-22T06:29:37.982Z,16.68
2018-08-22T06:30:47.694Z,16.65
2018-08-22T06:31:57.668Z,16.79
2018-08-22T06:33:07.836Z,16.91
2018-08-22T06:34:17.896Z,16.99
2018-08-22T06:35:27.860Z,16.98
2018-08-22T06:36:37.573Z,17.05
2018-08-22T06:37:47.714Z,17.13
2018-08-22T06:38:57.695Z,17.2
2018-08-22T06:40:07.721Z,17.3
2018-08-22T06:41:17.692Z,17.27
2018-08-22T06:42:27.678Z,17.34
2018-08-22T06:43:37.401Z,17.37
2018-08-22T06:44:47.376Z,17.46
2018-08-22T06:45:57.364Z,17.47
2018-08-22T06:47:07.364Z,17.69
2018-08-22T06:48:17.352Z,17.65
2018-08-22T06:49:27.326Z,17.69
2018-08-22T06:50:37.314Z,17.68
2018-08-22T06:51:47.295Z,17.69
2018-08-22T06:52:57.004Z,17.78
2018-08-22T06:54:06.969Z,17.94
2018-08-22T06:55:16.959Z,17.95
2018-08-22T06:56:26.678Z,18.02
2018-08-22T06:57:36.639Z,18.11
2018-08-22T06:58:46.638Z,18.13
2018-08-22T06:59:56.624Z,18.21
2018-08-22T07:01:06.591Z,18.27
2018-08-22T07:02:16.302Z,18.37
2018-08-22T07:03:26.290Z,18.51
2018-08-22T07:04:36.288Z,18.39
2018-08-22T07:05:46.274Z,18.45
2018-08-22T07:06:56.248Z,18.49
2018-08-22T07:08:06.363Z,18.52
2018-08-22T07:09:16.515Z,18.58
2018-08-22T07:10:26.246Z,18.58
2018-08-22T07:11:36.220Z,18.76
2018-08-22T07:12:46.210Z,18.79
2018-08-22T07:13:56.022Z,18.91
2018-08-22T07:15:06.154Z,18.94
2018-08-22T07:16:16.403Z,18.96
2018-08-22T07:17:26.117Z,19.05
2018-08-22T07:18:36.077Z,19.07
2018-08-22T07:19:46.073Z,19.08
2018-08-22T07:20:56.005Z,19.15
2018-08-22T07:22:06.043Z,19.24
2018-08-22T07:23:16.071Z,19.27
2018-08-22T07:24:25.783Z,19.3
2018-08-22T07:25:35.756Z,19.38
2018-08-22T07:26:45.742Z,19.44
2018-08-22T07:27:55.452Z,19.49
2018-08-22T07:29:05.421Z,19.53
2018-08-22T07:30:15.896Z,19.59
2018-08-22T07:31:25.673Z,19.66
2018-08-22T07:32:35.646Z,19.77
2018-08-22T07:33:45.619Z,19.81
2018-08-22T07:34:55.337Z,19.87
2018-08-22T07:36:04.794Z,19.89
2018-08-22T07:37:14.761Z,19.92
2018-08-22T07:38:24.726Z,20.08
2018-08-22T07:39:34.465Z,20.11
2018-08-22T07:40:44.444Z,20.12
2018-08-22T07:41:54.463Z,20.24
2018-08-22T07:43:04.198Z,20.24
2018-08-22T07:44:14.181Z,20.32
2018-08-22T07:45:24.152Z,20.32
2018-08-22T07:46:33.942Z,20.3
2018-08-22T07:47:43.655Z,20.49
2018-08-22T07:48:53.436Z,20.56
2018-08-22T07:50:03.484Z,20.71
2018-08-22T07:51:13.652Z,20.77
2018-08-22T07:52:23.655Z,20.85
2018-08-22T07:53:33.821Z,20.86
2018-08-22T07:54:43.546Z,20.92
2018-08-22T07:55:53.261Z,21.01
2018-08-22T07:57:03.222Z,21.03
2018-08-22T07:58:12.965Z,21.1
2018-08-22T07:59:22.952Z,21.2
2018-08-22T08:00:32.680Z,21.26
2018-08-22T08:01:42.508Z,21.2
2018-08-22T08:02:52.747Z,21.28
2018-08-22T08:04:02.771Z,21.29
2018-08-22T08:05:12.882Z,21.28
2018-08-22T08:06:22.648Z,21.28
2018-08-22T08:07:32.614Z,21.4
2018-08-22T08:08:42.597Z,21.44
2018-08-22T08:09:52.931Z,21.54
2018-08-22T08:11:03.311Z,21.6
2018-08-22T08:12:13.378Z,21.68
2018-08-22T08:13:23.370Z,21.74
2018-08-22T08:14:33.362Z,21.89
2018-08-22T08:15:43.612Z,21.97
2018-08-22T08:16:53.407Z,22.08
2018-08-22T08:18:03.453Z,22.16
2018-08-22T08:19:13.425Z,22.15
2018-08-22T08:20:23.499Z,22.19
2018-08-22T08:21:33.216Z,22.3
2018-08-22T08:22:42.956Z,22.36
2018-08-22T08:23:52.682Z,22.4
2018-08-22T08:25:02.670Z,22.56
2018-08-22T08:26:12.515Z,22.68
2018-08-22T08:27:22.490Z,22.81
2018-08-22T08:28:32.464Z,22.86
2018-08-22T08:29:42.184Z,22.96
2018-08-22T08:30:52.164Z,23.08
2018-08-22T08:32:02.155Z,23.29
2018-08-22T08:33:11.876Z,23.66
2018-08-22T08:34:21.850Z,23.96
2018-08-22T08:35:31.570Z,24.19
2018-08-22T08:36:41.593Z,24.55
2018-08-22T08:37:51.742Z,24.66
2018-08-22T08:39:01.511Z,24.82
2018-08-22T08:40:11.233Z,25.03
2018-08-22T08:41:21.222Z,24.85
2018-08-22T08:42:31.298Z,24.88
2018-08-22T08:43:41.051Z,25.11
2018-08-22T08:44:51.036Z,25.04
2018-08-22T08:46:00.749Z,25.04
2018-08-22T08:47:10.742Z,25.09
2018-08-22T08:48:20.226Z,25.39
2018-08-22T08:49:30.097Z,25.63
2018-08-22T08:50:40.255Z,25.66
2018-08-22T08:51:50.276Z,25.78
2018-08-22T08:53:00.289Z,25.86
2018-08-22T08:54:10.279Z,25.7
2018-08-22T08:55:20.363Z,25.81
2018-08-22T08:56:30.355Z,25.91
2018-08-22T08:57:40.358Z,25.95
2018-08-22T08:58:50.338Z,26.06
2018-08-22T09:00:00.056Z,26.04
2018-08-22T09:01:09.776Z,26.31
2018-08-22T09:02:19.547Z,26.44
2018-08-22T09:03:29.264Z,26.6
2018-08-22T09:04:39.258Z,26.76
2018-08-22T09:05:48.985Z,26.93
2018-08-22T09:06:58.461Z,27.13
2018-08-22T09:08:08.446Z,27.33
2018-08-22T09:09:18.418Z,27.34
2018-08-22T09:10:28.407Z,27.41
2018-08-22T09:11:38.410Z,27.61
2018-08-22T09:12:48.157Z,27.83
2018-08-22T09:13:58.146Z,27.97
2018-08-22T09:15:08.134Z,27.78
2018-08-22T09:16:17.912Z,27.76
2018-08-22T09:17:27.894Z,27.55
2018-08-22T09:18:37.132Z,27.5
2018-08-22T09:19:46.883Z,27.79
2018-08-22T09:20:56.659Z,28
2018-08-22T09:22:06.851Z,28.33
2018-08-22T09:23:16.930Z,28.65
2018-08-22T09:24:26.678Z,28.83
2018-08-22T09:25:36.797Z,28.78
2018-08-22T09:26:46.547Z,28.33
2018-08-22T09:27:56.291Z,28.16
2018-08-22T09:29:06.373Z,27.75
2018-08-22T09:30:16.369Z,27.13
2018-08-22T09:31:26.144Z,26.73
2018-08-22T09:32:35.893Z,26.66
2018-08-22T09:33:46.169Z,26.7
2018-08-22T09:34:56.367Z,26.91
2018-08-22T09:36:06.399Z,26.79
2018-08-22T09:37:16.375Z,26.88
2018-08-22T09:38:26.095Z,27.11
2018-08-22T09:39:36.052Z,27.28
2018-08-22T09:40:46.221Z,27.44
2018-08-22T09:41:55.943Z,27.2
2018-08-22T09:43:05.718Z,27.07
2018-08-22T09:44:15.938Z,26.96
2018-08-22T09:45:25.710Z,27.26
2018-08-22T09:46:35.832Z,27.6
2018-08-22T09:47:46.119Z,27.79
2018-08-22T09:48:55.844Z,27.76
2018-08-22T09:50:05.994Z,28.01
2018-08-22T09:51:15.905Z,28
2018-08-22T09:52:25.768Z,28.22
2018-08-22T09:53:35.533Z,28.65
2018-08-22T09:54:45.619Z,28.7
2018-08-22T09:55:55.682Z,28.82
2018-08-22T09:57:05.749Z,28.56
2018-08-22T09:58:15.968Z,28.49
2018-08-22T09:59:26.425Z,28.52
2018-08-22T10:00:36.303Z,28.71
2018-08-22T10:01:46.450Z,28.94
2018-08-22T10:02:56.189Z,28.97
2018-08-22T10:04:06.180Z,28.7
2018-08-22T10:05:16.170Z,28.28
2018-08-22T10:06:26.396Z,27.94
2018-08-22T10:07:36.566Z,28.35
2018-08-22T10:08:46.563Z,28.72
2018-08-22T10:09:56.685Z,28.67
2018-08-22T10:11:07.076Z,29.07
2018-08-22T10:12:16.820Z,29.06
2018-08-22T10:13:26.879Z,29.12
2018-08-22T10:14:36.879Z,29.44
2018-08-22T10:15:46.979Z,29.47
2018-08-22T10:16:56.977Z,29.16
2018-08-22T10:18:06.978Z,28.96
2018-08-22T10:19:17.041Z,28.92
2018-08-22T10:20:27.042Z,29.3
2018-08-22T10:21:37.057Z,28.71
2018-08-22T10:22:47.070Z,28.12
2018-08-22T10:23:57.094Z,28.1
2018-08-22T10:25:07.093Z,28.22
2018-08-22T10:26:17.087Z,28.82
2018-08-22T10:27:27.102Z,29.28
2018-08-22T10:28:37.109Z,29.74
2018-08-22T10:29:46.847Z,30.16
2018-08-22T10:30:56.873Z,30.39
2018-08-22T10:32:06.606Z,30.43
2018-08-22T10:33:16.862Z,30.96
2018-08-22T10:34:26.844Z,31.42
2018-08-22T10:35:36.564Z,31.51
2018-08-22T10:36:46.559Z,31.15
2018-08-22T10:37:56.569Z,30.02
2018-08-22T10:39:06.553Z,29.58
2018-08-22T10:40:16.537Z,29.15
2018-08-22T10:41:26.534Z,28.84
2018-08-22T10:42:36.527Z,28.6
2018-08-22T10:43:46.536Z,28.62
2018-08-22T10:44:56.510Z,28.72
2018-08-22T10:46:06.523Z,29.09
2018-08-22T10:47:16.524Z,29.59
2018-08-22T10:48:26.580Z,30.03
2018-08-22T10:49:36.378Z,30.61
2018-08-22T10:50:46.693Z,31.13
2018-08-22T10:51:56.734Z,31.14
2018-08-22T10:53:06.774Z,30.4
2018-08-22T10:54:16.760Z,29.5
2018-08-22T10:55:26.825Z,29.12
2018-08-22T10:56:36.879Z,28.9
2018-08-22T10:57:46.889Z,28.7
2018-08-22T10:58:56.926Z,28.65
2018-08-22T11:00:06.928Z,28.78
2018-08-22T11:01:16.681Z,29.31
2018-08-22T11:02:26.428Z,29.71
2018-08-22T11:03:36.148Z,30.27
2018-08-22T11:04:46.139Z,30.86
2018-08-22T11:05:56.160Z,31.15
2018-08-22T11:07:06.180Z,31.66
2018-08-22T11:08:16.185Z,32.3
2018-08-22T11:09:26.192Z,32.75
2018-08-22T11:10:36.181Z,32.78
2018-08-22T11:11:46.193Z,33.15
2018-08-22T11:12:55.927Z,33.61
2018-08-22T11:14:05.935Z,34.04
2018-08-22T11:15:15.940Z,34.1
2018-08-22T11:16:26.560Z,34.26
2018-08-22T11:17:41.542Z,34.6
2018-08-22T11:18:56.727Z,34.21
2018-08-22T11:20:06.709Z,33.61
2018-08-22T11:21:16.738Z,33.42
2018-08-22T11:22:26.938Z,33.29
2018-08-22T11:23:37.278Z,33.04
2018-08-22T11:24:46.759Z,32.31
2018-08-22T11:25:56.755Z,31.81
2018-08-22T11:27:06.755Z,31.5
2018-08-22T11:28:21.449Z,31.41
2018-08-22T11:29:37.138Z,31.52
2018-08-22T11:30:47.275Z,30.85
2018-08-22T11:31:57.254Z,30.96
2018-08-22T11:33:07.240Z,31.45
2018-08-22T11:34:17.229Z,31.11
2018-08-22T11:35:27.361Z,30.61
2018-08-22T11:36:37.093Z,30.24
2018-08-22T11:37:46.817Z,29.9
2018-08-22T11:38:56.802Z,29.98
2018-08-22T11:40:06.809Z,30.08
2018-08-22T11:41:16.562Z,29.81
2018-08-22T11:42:26.057Z,30.1
2018-08-22T11:43:36.029Z,30.23
2018-08-22T11:44:46.032Z,30.49
2018-08-22T11:45:56.008Z,30.92
2018-08-22T11:47:06.007Z,31.15
2018-08-22T11:48:15.747Z,31.07
2018-08-22T11:49:25.728Z,30.51
2018-08-22T11:50:35.726Z,29.99
2018-08-22T11:51:45.720Z,29.89
2018-08-22T11:52:55.481Z,30.13
2018-08-22T11:54:05.466Z,29.9
2018-08-22T11:55:15.462Z,29.79
2018-08-22T11:56:25.206Z,29.47
2018-08-22T11:57:34.933Z,29.71
2018-08-22T11:58:44.932Z,30.05
2018-08-22T11:59:54.929Z,30.31
2018-08-22T12:01:04.930Z,30.27
2018-08-22T12:02:14.913Z,30.52
2018-08-22T12:03:24.907Z,30.96
2018-08-22T12:04:34.886Z,31.17
2018-08-22T12:05:44.877Z,31.13
2018-08-22T12:06:54.860Z,30.91
2018-08-22T12:08:04.845Z,30.86
2018-08-22T12:09:14.568Z,30.73
2018-08-22T12:10:24.561Z,30.49
2018-08-22T12:11:34.362Z,30.44
2018-08-22T12:12:44.356Z,30.63
2018-08-22T12:13:54.079Z,30.13
2018-08-22T12:15:04.085Z,30.17
2018-08-22T12:16:14.105Z,30.44
2018-08-22T12:17:24.252Z,30.44
2018-08-22T12:18:34.243Z,30.88
2018-08-22T12:19:44.247Z,31.48
2018-08-22T12:20:53.989Z,31.98
2018-08-22T12:22:03.713Z,32.23
2018-08-22T12:23:14.178Z,32.39
2018-08-22T12:24:24.137Z,31.98
2018-08-22T12:25:34.123Z,31.81
2018-08-22T12:26:43.841Z,31.81
2018-08-22T12:27:53.602Z,31.81
2018-08-22T12:29:03.341Z,31.69
2018-08-22T12:30:13.323Z,31.81
2018-08-22T12:31:23.044Z,31.48
2018-08-22T12:32:33.032Z,31.36
2018-08-22T12:33:43.012Z,31.55
2018-08-22T12:34:53.005Z,32.01
2018-08-22T12:36:02.991Z,32.44
2018-08-22T12:37:12.713Z,32.35
2018-08-22T12:38:22.475Z,32.44
2018-08-22T12:39:32.463Z,32.54
2018-08-22T12:40:42.449Z,32.11
2018-08-22T12:41:52.436Z,32.37
2018-08-22T12:43:02.173Z,32.6
2018-08-22T12:44:12.182Z,33.05
2018-08-22T12:45:22.167Z,33.22
2018-08-22T12:46:32.151Z,33.38
2018-08-22T12:47:42.149Z,33.6
2018-08-22T12:48:52.126Z,33.82
2018-08-22T12:50:01.882Z,33.53
2018-08-22T12:51:11.609Z,33.75
2018-08-22T12:52:21.363Z,34.1
2018-08-22T12:53:31.347Z,34.18
2018-08-22T12:54:41.347Z,34.35
2018-08-22T12:55:51.070Z,34.83
2018-08-22T12:57:00.680Z,34.6
2018-08-22T12:58:10.854Z,34.59
2018-08-22T12:59:20.844Z,34.51
2018-08-22T13:00:30.875Z,34.66
2018-08-22T13:01:40.345Z,34.76
2018-08-22T13:02:50.367Z,34.18
2018-08-22T13:04:00.347Z,34.19
2018-08-22T13:05:10.349Z,33.67
2018-08-22T13:06:20.330Z,33.88
2018-08-22T13:07:30.318Z,33.73
2018-08-22T13:08:40.307Z,33.57
2018-08-22T13:09:50.284Z,32.93
2018-08-22T13:11:00.155Z,32.71
2018-08-22T13:12:09.683Z,32.2
2018-08-22T13:13:19.429Z,32.16
2018-08-22T13:14:29.157Z,32.38
2018-08-22T13:15:39.155Z,32.48
2018-08-22T13:16:49.176Z,32.79
2018-08-22T13:17:58.980Z,33.23
2018-08-22T13:19:08.466Z,33.51
2018-08-22T13:20:18.453Z,33.89
2018-08-22T13:21:28.180Z,34.03
2018-08-22T13:22:38.169Z,33.98
2018-08-22T13:23:48.168Z,34.28
2018-08-22T13:24:58.160Z,34.63
2018-08-22T13:26:07.939Z,35.05
2018-08-22T13:27:17.949Z,35.47
2018-08-22T13:28:27.450Z,35.94
2018-08-22T13:29:36.924Z,36.51
2018-08-22T13:30:46.917Z,36.62
2018-08-22T13:31:56.940Z,35.72
2018-08-22T13:33:06.936Z,35.97
2018-08-22T13:34:16.950Z,36.13
2018-08-22T13:35:26.414Z,36.14
2018-08-22T13:36:36.661Z,35.5
2018-08-22T13:37:46.406Z,34.7
2018-08-22T13:38:56.222Z,34.07
2018-08-22T13:40:06.363Z,33.7
2018-08-22T13:41:16.398Z,33.15
2018-08-22T13:42:26.469Z,32.45
2018-08-22T13:43:36.216Z,31.9
2018-08-22T13:44:46.214Z,31.77
2018-08-22T13:45:55.953Z,31.47
2018-08-22T13:47:05.713Z,31.23
2018-08-22T13:48:15.197Z,31.55
2018-08-22T13:49:25.176Z,31.97
2018-08-22T13:50:35.184Z,32.42
2018-08-22T13:51:45.215Z,32.2
2018-08-22T13:52:55.205Z,31.87
2018-08-22T13:54:05.203Z,32.02
2018-08-22T13:55:14.945Z,32.08
2018-08-22T13:56:25.222Z,31.66
2018-08-22T13:57:35.484Z,32.08
2018-08-22T13:58:44.960Z,31.69
2018-08-22T13:59:54.952Z,31.55
2018-08-22T14:01:04.939Z,31.62
2018-08-22T14:02:14.920Z,31.63
2018-08-22T14:03:24.735Z,31.45
2018-08-22T14:04:34.736Z,31.42
2018-08-22T14:05:44.739Z,31.92
2018-08-22T14:06:54.532Z,32.39
2018-08-22T14:08:04.264Z,32.53
2018-08-22T14:09:14.267Z,32.75
2018-08-22T14:10:23.990Z,32.63
2018-08-22T14:11:33.961Z,32.71
2018-08-22T14:12:43.993Z,32.91
2018-08-22T14:13:53.995Z,32.93
2018-08-22T14:15:03.715Z,33.05
2018-08-22T14:16:13.999Z,33.28
2018-08-22T14:17:23.721Z,33.65
2018-08-22T14:18:33.712Z,34.09
2018-08-22T14:19:43.716Z,34.62
2018-08-22T14:20:53.845Z,34.76
2018-08-22T14:22:03.830Z,35.41
2018-08-22T14:23:13.829Z,35.69
2018-08-22T14:24:23.817Z,35.39
2018-08-22T14:25:33.556Z,35.03
2018-08-22T14:26:43.531Z,35.19
2018-08-22T14:27:53.527Z,34.58
2018-08-22T14:29:03.561Z,34.32
2018-08-22T14:30:13.636Z,33.26
2018-08-22T14:31:23.640Z,33.01
2018-08-22T14:32:33.423Z,33.29
2018-08-22T14:33:43.633Z,33.19
2018-08-22T14:34:53.985Z,32.64
2018-08-22T14:36:03.720Z,33.09
2018-08-22T14:37:13.715Z,33.48
2018-08-22T14:38:23.461Z,33.5
2018-08-22T14:39:33.614Z,33.19
2018-08-22T14:40:43.646Z,33.4
2018-08-22T14:41:53.624Z,33.33
2018-08-22T14:43:03.361Z,33.48
2018-08-22T14:44:12.824Z,33.61
2018-08-22T14:45:22.812Z,33.95
2018-08-22T14:46:32.812Z,34.28
2018-08-22T14:47:42.801Z,34.06
2018-08-22T14:48:52.787Z,34.18
2018-08-22T14:50:02.770Z,34.28
2018-08-22T14:51:12.746Z,34.28
2018-08-22T14:52:22.735Z,34.33
2018-08-22T14:53:32.474Z,34.62
2018-08-22T14:54:42.492Z,35
2018-08-22T14:55:52.840Z,35.04
2018-08-22T14:57:03.113Z,35.18
2018-08-22T14:58:13.104Z,35.2
2018-08-22T14:59:22.843Z,34.62
2018-08-22T15:00:32.575Z,34.48
2018-08-22T15:01:42.579Z,34.73
2018-08-22T15:02:53.486Z,35.23
2018-08-22T15:04:04.716Z,35.25
2018-08-22T15:05:14.698Z,34.82